createdAt,value
2023-07-30T00:00:37.256Z,158.33
2023-07-30T00:01:39.746Z,155.33
2023-07-30T00:02:42.449Z,156.33
2023-07-30T00:03:45.708Z,157.17
2023-07-30T00:04:48.520Z,158.00
2023-07-30T00:05:55.930Z,156.00
2023-07-30T00:06:58.160Z,153.17
2023-07-30T00:08:01.597Z,153.50
2023-07-30T00:09:03.948Z,154.33
2023-07-30T00:10:08.342Z,155.00
2023-07-30T00:11:10.559Z,154.83
2023-07-30T00:12:13.756Z,152.67
2023-07-30T00:13:17.443Z,152.17
2023-07-30T00:14:20.593Z,154.33
2023-07-30T00:15:23.083Z,157.17
2023-07-30T00:16:27.756Z,158.00
2023-07-30T00:17:29.940Z,158.00
2023-07-30T00:18:33.275Z,157.17
2023-07-30T00:19:36.618Z,155.33
2023-07-30T00:20:39.771Z,155.00
2023-07-30T00:21:44.832Z,155.00
2023-07-30T00:22:47.971Z,156.00
2023-07-30T00:23:50.129Z,156.83
2023-07-30T00:24:53.320Z,157.00
2023-07-30T00:25:55.547Z,159.33
2023-07-30T00:26:58.796Z,162.67
2023-07-30T00:28:00.950Z,163.00
2023-07-30T00:29:05.537Z,163.00
2023-07-30T00:30:08.754Z,163.00
2023-07-30T00:31:12.017Z,163.00
2023-07-30T00:32:16.984Z,161.83
2023-07-30T00:33:20.176Z,160.33
2023-07-30T00:34:22.485Z,160.67
2023-07-30T00:35:25.698Z,161.00
2023-07-30T00:36:27.850Z,162.17
2023-07-30T00:37:31.024Z,163.83
2023-07-30T00:38:33.178Z,166.00
2023-07-30T00:39:36.402Z,167.00
2023-07-30T00:40:41.662Z,167.00
2023-07-30T00:41:43.828Z,167.17
2023-07-30T00:42:47.004Z,168.50
2023-07-30T00:43:49.189Z,169.67
2023-07-30T00:44:53.694Z,175.83
2023-07-30T00:45:56.484Z,179.33
2023-07-30T00:46:59.830Z,177.67
2023-07-30T00:48:02.500Z,177.50
2023-07-30T00:49:05.845Z,178.00
2023-07-30T00:50:09.419Z,178.67
2023-07-30T00:51:15.635Z,178.00
2023-07-30T00:52:20.222Z,177.17
2023-07-30T00:53:24.451Z,175.17
2023-07-30T00:54:26.964Z,174.00
2023-07-30T00:55:30.439Z,173.33
2023-07-30T00:56:32.703Z,173.00
2023-07-30T00:57:37.420Z,172.00
2023-07-30T00:58:39.869Z,170.67
2023-07-30T00:59:43.315Z,170.00
2023-07-30T01:00:47.610Z,170.00
2023-07-30T01:01:52.818Z,169.50
2023-07-30T01:02:56.377Z,168.50
2023-07-30T01:03:58.739Z,166.67
2023-07-30T01:05:04.492Z,165.00
2023-07-30T01:06:06.869Z,165.00
2023-07-30T01:07:09.074Z,165.67
2023-07-30T01:08:14.431Z,165.67
2023-07-30T01:09:17.998Z,163.00
2023-07-30T01:10:21.988Z,161.17
2023-07-30T01:11:24.334Z,158.50
2023-07-30T01:12:28.519Z,155.83
2023-07-30T01:13:30.915Z,154.17
2023-07-30T01:14:34.384Z,154.50
2023-07-30T01:15:37.714Z,153.17
2023-07-30T01:16:42.290Z,149.83
2023-07-30T01:17:44.645Z,150.00
2023-07-30T01:18:48.621Z,147.83
2023-07-30T01:19:50.930Z,142.17
2023-07-30T01:21:00.087Z,140.33
2023-07-30T01:22:02.376Z,141.33
2023-07-30T01:23:05.547Z,141.00
2023-07-30T01:24:07.756Z,141.33
2023-07-30T01:25:10.953Z,140.83
2023-07-30T01:26:24.844Z,139.50
2023-07-30T01:27:30.666Z,139.00
2023-07-30T01:28:38.750Z,139.00
2023-07-30T01:29:45.144Z,139.00
2023-07-30T01:30:47.738Z,139.00
2023-07-30T01:31:57.379Z,139.00
2023-07-30T01:32:59.664Z,139.00
2023-07-30T01:34:04.849Z,138.00
2023-07-30T01:35:09.429Z,137.17
2023-07-30T01:36:17.635Z,137.00
2023-07-30T01:37:21.037Z,137.67
2023-07-30T01:38:23.430Z,138.00
2023-07-30T01:39:26.762Z,139.00
2023-07-30T01:40:29.259Z,139.00
2023-07-30T01:41:32.559Z,139.67
2023-07-30T01:42:34.838Z,140.00
2023-07-30T01:43:37.144Z,140.67
2023-07-30T01:44:40.273Z,141.00
2023-07-30T01:45:42.432Z,142.17
2023-07-30T01:46:45.552Z,145.17
2023-07-30T01:47:47.927Z,147.00
2023-07-30T01:48:51.207Z,146.50
2023-07-30T01:49:53.429Z,146.00
2023-07-30T01:50:56.618Z,145.83
2023-07-30T01:52:00.277Z,145.00
2023-07-30T01:53:03.448Z,143.67
2023-07-30T01:54:05.651Z,142.50
2023-07-30T01:55:09.608Z,140.50
2023-07-30T01:56:11.818Z,140.00
2023-07-30T01:57:15.023Z,140.00
2023-07-30T01:58:17.205Z,140.33
2023-07-30T01:59:19.359Z,141.17
2023-07-30T02:00:22.542Z,142.00
2023-07-30T02:01:24.837Z,143.00
2023-07-30T02:02:28.130Z,143.00
2023-07-30T02:03:30.450Z,143.00
2023-07-30T02:04:33.757Z,143.00
2023-07-30T02:05:35.954Z,143.00
2023-07-30T02:06:39.077Z,143.00
2023-07-30T02:07:42.620Z,143.33
2023-07-30T02:08:45.771Z,144.00
2023-07-30T02:09:47.964Z,144.00
2023-07-30T02:10:57.756Z,144.00
2023-07-30T02:11:59.931Z,145.00
2023-07-30T02:13:03.067Z,148.17
2023-07-30T02:14:05.263Z,149.50
2023-07-30T02:15:09.374Z,148.33
2023-07-30T02:16:11.598Z,146.83
2023-07-30T02:17:14.788Z,146.00
2023-07-30T02:18:16.994Z,146.00
2023-07-30T02:19:20.920Z,147.00
2023-07-30T02:20:23.092Z,152.50
2023-07-30T02:21:26.233Z,157.00
2023-07-30T02:22:28.548Z,158.50
2023-07-30T02:23:33.144Z,159.00
2023-07-30T02:24:35.343Z,159.00
2023-07-30T02:25:39.886Z,159.00
2023-07-30T02:26:42.246Z,159.00
2023-07-30T02:27:44.480Z,159.00
2023-07-30T02:28:47.681Z,158.00
2023-07-30T02:29:49.899Z,157.17
2023-07-30T02:30:53.085Z,157.00
2023-07-30T02:31:55.529Z,156.17
2023-07-30T02:32:58.835Z,155.17
2023-07-30T02:34:01.075Z,155.00
2023-07-30T02:35:04.456Z,154.67
2023-07-30T02:36:06.640Z,154.17
2023-07-30T02:37:09.776Z,154.33
2023-07-30T02:38:11.941Z,154.00
2023-07-30T02:39:16.469Z,154.00
2023-07-30T02:40:18.693Z,155.00
2023-07-30T02:41:21.885Z,155.67
2023-07-30T02:42:24.067Z,156.00
2023-07-30T02:43:27.305Z,156.00
2023-07-30T02:44:29.480Z,157.67
2023-07-30T02:45:32.832Z,158.83
2023-07-30T02:46:35.042Z,157.00
2023-07-30T02:47:38.243Z,155.17
2023-07-30T02:48:40.567Z,155.83
2023-07-30T02:49:43.921Z,157.33
2023-07-30T02:50:46.279Z,159.00
2023-07-30T02:51:50.222Z,159.00
2023-07-30T02:52:52.412Z,154.50
2023-07-30T02:53:59.693Z,147.50
2023-07-30T02:55:03.706Z,148.33
2023-07-30T02:56:06.870Z,150.67
2023-07-30T02:57:09.096Z,155.33
2023-07-30T02:58:12.270Z,163.83
2023-07-30T02:59:14.492Z,164.00
2023-07-30T03:00:17.999Z,162.00
2023-07-30T03:01:20.250Z,161.17
2023-07-30T03:02:23.572Z,163.00
2023-07-30T03:03:25.819Z,166.83
2023-07-30T03:04:28.986Z,169.33
2023-07-30T03:05:31.179Z,170.00
2023-07-30T03:06:34.326Z,169.67
2023-07-30T03:07:36.830Z,169.00
2023-07-30T03:08:39.976Z,168.33
2023-07-30T03:09:42.230Z,169.00
2023-07-30T03:10:46.775Z,168.67
2023-07-30T03:11:48.943Z,168.00
2023-07-30T03:12:52.045Z,168.00
2023-07-30T03:13:54.191Z,168.00
2023-07-30T03:14:57.461Z,168.17
2023-07-30T03:15:59.622Z,169.00
2023-07-30T03:17:02.875Z,169.00
2023-07-30T03:18:05.175Z,169.00
2023-07-30T03:19:08.584Z,169.00
2023-07-30T03:20:11.310Z,171.83
2023-07-30T03:21:14.501Z,176.83
2023-07-30T03:22:17.407Z,177.33
2023-07-30T03:23:20.665Z,176.33
2023-07-30T03:24:22.816Z,175.50
2023-07-30T03:25:25.957Z,175.00
2023-07-30T03:26:29.454Z,175.00
2023-07-30T03:27:32.564Z,175.83
2023-07-30T03:28:34.863Z,176.00
2023-07-30T03:29:38.024Z,176.00
2023-07-30T03:30:40.178Z,176.33
2023-07-30T03:31:43.333Z,177.00
2023-07-30T03:32:45.486Z,177.00
2023-07-30T03:33:48.729Z,177.83
2023-07-30T03:34:50.927Z,178.67
2023-07-30T03:35:54.140Z,181.50
2023-07-30T03:37:00.290Z,184.00
2023-07-30T03:38:04.386Z,185.00
2023-07-30T03:39:07.505Z,185.33
2023-07-30T03:40:10.404Z,186.00
2023-07-30T03:41:12.583Z,186.00
2023-07-30T03:42:17.285Z,186.00
2023-07-30T03:43:19.410Z,186.00
2023-07-30T03:44:22.606Z,186.00
2023-07-30T03:45:24.856Z,186.83
2023-07-30T03:46:28.023Z,187.33
2023-07-30T03:47:30.306Z,188.67
2023-07-30T03:48:32.539Z,188.67
2023-07-30T03:49:35.713Z,187.00
2023-07-30T03:50:37.959Z,185.33
2023-07-30T03:51:41.184Z,184.00
2023-07-30T03:52:43.347Z,185.33
2023-07-30T03:53:45.506Z,192.00
2023-07-30T03:54:48.645Z,198.17
2023-07-30T03:55:50.792Z,197.33
2023-07-30T03:56:53.886Z,195.67
2023-07-30T03:57:57.443Z,194.33
2023-07-30T03:59:00.622Z,194.83
2023-07-30T04:00:04.144Z,196.67
2023-07-30T04:01:08.166Z,198.00
2023-07-30T04:02:10.521Z,196.67
2023-07-30T04:03:13.788Z,195.00
2023-07-30T04:04:16.015Z,194.00
2023-07-30T04:05:19.273Z,194.00
2023-07-30T04:06:21.398Z,194.67
2023-07-30T04:07:24.534Z,194.83
2023-07-30T04:08:26.729Z,194.00
2023-07-30T04:09:29.834Z,194.00
2023-07-30T04:10:32.222Z,194.33
2023-07-30T04:11:34.497Z,195.00
2023-07-30T04:12:37.658Z,195.00
2023-07-30T04:13:42.048Z,195.00
2023-07-30T04:14:45.282Z,195.00
2023-07-30T04:15:48.817Z,194.00
2023-07-30T04:16:51.990Z,194.00
2023-07-30T04:17:54.277Z,195.00
2023-07-30T04:18:57.577Z,194.33
2023-07-30T04:19:59.757Z,190.67
2023-07-30T04:21:02.856Z,186.50
2023-07-30T04:22:05.095Z,183.83
2023-07-30T04:23:08.237Z,185.83
2023-07-30T04:24:10.465Z,234.67
2023-07-30T04:25:13.587Z,269.00
2023-07-30T04:26:15.730Z,268.00
2023-07-30T04:27:18.866Z,238.50
2023-07-30T04:28:21.067Z,228.67
2023-07-30T04:29:25.673Z,221.50
2023-07-30T04:30:27.900Z,207.33
2023-07-30T04:31:31.084Z,198.83
2023-07-30T04:32:33.272Z,191.33
2023-07-30T04:33:36.392Z,181.50
2023-07-30T04:34:39.584Z,176.33
2023-07-30T04:35:42.758Z,179.50
2023-07-30T04:36:45.003Z,184.17
2023-07-30T04:37:48.172Z,185.00
2023-07-30T04:38:50.325Z,185.67
2023-07-30T04:39:53.500Z,186.83
2023-07-30T04:40:55.633Z,187.83
2023-07-30T04:41:58.738Z,186.67
2023-07-30T04:43:00.872Z,183.67
2023-07-30T04:44:04.002Z,180.67
2023-07-30T04:45:08.801Z,179.50
2023-07-30T04:46:12.023Z,178.67
2023-07-30T04:47:14.222Z,178.00
2023-07-30T04:48:17.448Z,176.67
2023-07-30T04:49:19.642Z,173.50
2023-07-30T04:50:22.784Z,174.17
2023-07-30T04:51:25.034Z,175.33
2023-07-30T04:52:28.172Z,177.17
2023-07-30T04:53:30.623Z,179.50
2023-07-30T04:54:33.813Z,181.83
2023-07-30T04:55:36.070Z,183.00
2023-07-30T04:56:39.408Z,184.00
2023-07-30T04:57:41.522Z,187.83
2023-07-30T04:58:44.653Z,190.50
2023-07-30T04:59:46.822Z,193.67
2023-07-30T05:00:51.365Z,197.83
2023-07-30T05:01:53.587Z,200.50
2023-07-30T05:02:56.820Z,204.17
2023-07-30T05:03:59.055Z,207.33
2023-07-30T05:05:01.276Z,210.33
2023-07-30T05:06:04.474Z,208.50
2023-07-30T05:07:06.917Z,206.50
2023-07-30T05:08:10.253Z,205.00
2023-07-30T05:09:12.899Z,203.83
2023-07-30T05:10:17.265Z,198.17
2023-07-30T05:11:19.452Z,191.17
2023-07-30T05:12:21.587Z,188.50
2023-07-30T05:13:24.665Z,187.50
2023-07-30T05:14:26.845Z,187.00
2023-07-30T05:15:29.997Z,186.17
2023-07-30T05:16:33.589Z,187.00
2023-07-30T05:17:36.924Z,188.17
2023-07-30T05:18:39.180Z,191.33
2023-07-30T05:19:42.352Z,193.00
2023-07-30T05:20:47.044Z,194.17
2023-07-30T05:21:50.186Z,197.50
2023-07-30T05:22:52.384Z,200.50
2023-07-30T05:23:55.576Z,203.83
2023-07-30T05:24:57.893Z,205.83
2023-07-30T05:26:01.066Z,207.00
2023-07-30T05:27:03.252Z,206.67
2023-07-30T05:28:06.409Z,206.33
2023-07-30T05:29:08.548Z,208.50
2023-07-30T05:30:12.504Z,210.50
2023-07-30T05:31:14.785Z,211.33
2023-07-30T05:32:19.343Z,213.00
2023-07-30T05:33:21.555Z,217.67
2023-07-30T05:34:24.813Z,219.67
2023-07-30T05:35:26.957Z,218.00
2023-07-30T05:36:30.166Z,216.50
2023-07-30T05:37:32.349Z,215.83
2023-07-30T05:38:35.587Z,215.50
2023-07-30T05:39:38.085Z,215.00
2023-07-30T05:40:41.308Z,214.50
2023-07-30T05:41:43.461Z,214.00
2023-07-30T05:42:46.665Z,212.67
2023-07-30T05:43:49.009Z,210.67
2023-07-30T05:44:51.168Z,209.17
2023-07-30T05:45:54.395Z,210.17
2023-07-30T05:46:56.621Z,212.00
2023-07-30T05:48:01.161Z,211.17
2023-07-30T05:49:03.332Z,206.83
2023-07-30T05:50:07.467Z,204.33
2023-07-30T05:51:09.728Z,204.00
2023-07-30T05:52:12.934Z,204.00
2023-07-30T05:53:15.508Z,204.00
2023-07-30T05:54:19.531Z,204.50
2023-07-30T05:55:21.691Z,208.50
2023-07-30T05:56:24.844Z,213.67
2023-07-30T05:57:27.008Z,215.50
2023-07-30T05:58:30.130Z,215.17
2023-07-30T05:59:32.310Z,213.50
2023-07-30T06:00:35.564Z,210.17
2023-07-30T06:01:38.174Z,208.00
2023-07-30T06:02:41.630Z,202.50
2023-07-30T06:03:45.288Z,197.33
2023-07-30T06:04:49.822Z,194.00
2023-07-30T06:05:52.016Z,191.67
2023-07-30T06:06:55.145Z,189.17
2023-07-30T06:07:57.890Z,189.67
2023-07-30T06:09:01.376Z,189.17
2023-07-30T06:10:04.186Z,187.83
2023-07-30T06:11:07.755Z,186.33
2023-07-30T06:12:10.053Z,188.00
2023-07-30T06:13:13.260Z,189.67
2023-07-30T06:14:15.495Z,190.00
2023-07-30T06:15:18.635Z,188.83
2023-07-30T06:16:21.371Z,185.67
2023-07-30T06:17:24.915Z,182.83
2023-07-30T06:18:27.080Z,178.50
2023-07-30T06:19:31.604Z,171.83
2023-07-30T06:20:33.964Z,169.50
2023-07-30T06:21:37.596Z,168.50
2023-07-30T06:22:40.166Z,167.00
2023-07-30T06:23:43.344Z,164.00
2023-07-30T06:24:45.542Z,166.50
2023-07-30T06:25:48.700Z,168.17
2023-07-30T06:26:50.900Z,169.50
2023-07-30T06:27:54.103Z,169.67
2023-07-30T06:28:56.327Z,168.83
2023-07-30T06:29:59.427Z,168.33
2023-07-30T06:31:02.165Z,169.00
2023-07-30T06:32:06.000Z,169.50
2023-07-30T06:33:08.298Z,170.33
2023-07-30T06:34:11.453Z,171.00
2023-07-30T06:35:15.026Z,171.67
2023-07-30T06:36:18.230Z,172.00
2023-07-30T06:37:20.368Z,172.00
2023-07-30T06:38:24.468Z,171.00
2023-07-30T06:39:26.732Z,168.67
2023-07-30T06:40:30.000Z,165.83
2023-07-30T06:41:32.303Z,160.00
2023-07-30T06:42:35.526Z,159.50
2023-07-30T06:43:37.668Z,160.83
2023-07-30T06:44:40.905Z,161.00
2023-07-30T06:45:43.104Z,161.50
2023-07-30T06:46:46.301Z,158.50
2023-07-30T06:47:48.704Z,151.50
2023-07-30T06:48:52.422Z,149.33
2023-07-30T06:49:54.596Z,147.00
2023-07-30T06:50:59.203Z,145.00
2023-07-30T06:52:01.584Z,143.83
2023-07-30T06:53:04.757Z,148.67
2023-07-30T06:54:07.159Z,167.17
2023-07-30T06:55:10.726Z,169.50
2023-07-30T06:56:12.978Z,165.50
2023-07-30T06:57:16.196Z,157.00
2023-07-30T06:58:18.416Z,146.17
2023-07-30T06:59:21.622Z,139.00
2023-07-30T07:00:23.796Z,132.17
2023-07-30T07:01:27.122Z,124.17
2023-07-30T07:02:29.505Z,121.00
2023-07-30T07:03:32.890Z,123.50
2023-07-30T07:04:35.353Z,128.33
2023-07-30T07:05:38.634Z,128.33
2023-07-30T07:06:42.230Z,124.33
2023-07-30T07:07:45.736Z,118.50
2023-07-30T07:08:47.867Z,108.50
2023-07-30T07:09:51.051Z,104.17
2023-07-30T07:10:53.347Z,102.50
2023-07-30T07:11:56.513Z,100.00
2023-07-30T07:12:58.748Z,93.83
2023-07-30T07:14:01.985Z,87.67
2023-07-30T07:15:05.022Z,84.33
2023-07-30T07:16:08.320Z,86.67
2023-07-30T07:17:10.876Z,83.67
2023-07-30T07:18:14.039Z,73.00
2023-07-30T07:19:16.200Z,65.50
2023-07-30T07:20:19.439Z,65.17
2023-07-30T07:21:21.753Z,67.17
2023-07-30T07:22:26.295Z,69.50
2023-07-30T07:23:28.605Z,74.67
2023-07-30T07:24:32.441Z,76.00
2023-07-30T07:25:34.872Z,74.17
2023-07-30T07:26:38.052Z,69.17
2023-07-30T07:27:40.214Z,60.17
2023-07-30T07:28:43.399Z,56.17
2023-07-30T07:29:45.852Z,56.67
2023-07-30T07:30:49.159Z,57.50
2023-07-30T07:31:51.454Z,60.50
2023-07-30T07:32:54.943Z,62.33
2023-07-30T07:33:57.195Z,63.17
2023-07-30T07:35:00.485Z,64.00
2023-07-30T07:36:06.944Z,64.83
2023-07-30T07:37:10.172Z,65.50
2023-07-30T07:38:13.683Z,65.33
2023-07-30T07:39:16.892Z,62.33
2023-07-30T07:40:19.133Z,58.00
2023-07-30T07:41:22.567Z,57.50
2023-07-30T07:42:24.956Z,58.67
2023-07-30T07:43:28.561Z,59.50
2023-07-30T07:44:30.787Z,64.33
2023-07-30T07:45:34.070Z,77.50
2023-07-30T07:46:36.556Z,80.50
2023-07-30T07:47:39.873Z,78.67
2023-07-30T07:48:43.248Z,77.50
2023-07-30T07:49:46.361Z,76.67
2023-07-30T07:50:48.514Z,75.83
2023-07-30T07:51:51.761Z,73.67
2023-07-30T07:52:53.960Z,71.50
2023-07-30T07:53:59.341Z,68.83
2023-07-30T07:55:01.633Z,66.17
2023-07-30T07:56:05.297Z,63.17
2023-07-30T07:57:07.555Z,59.17
2023-07-30T07:58:10.787Z,53.50
2023-07-30T07:59:13.065Z,50.33
2023-07-30T08:00:16.243Z,50.50
2023-07-30T08:01:18.481Z,52.00
2023-07-30T08:02:21.760Z,55.33
2023-07-30T08:03:24.871Z,56.83
2023-07-30T08:04:28.377Z,56.17
2023-07-30T08:05:30.654Z,55.33
2023-07-30T08:06:33.858Z,55.67
2023-07-30T08:07:36.026Z,55.00
2023-07-30T08:08:39.207Z,54.50
2023-07-30T08:09:42.741Z,54.67
2023-07-30T08:10:47.992Z,56.00
2023-07-30T08:11:50.158Z,58.67
2023-07-30T08:12:53.497Z,63.33
2023-07-30T08:13:55.650Z,66.00
2023-07-30T08:14:58.850Z,65.33
2023-07-30T08:16:02.009Z,64.83
2023-07-30T08:17:05.860Z,63.83
2023-07-30T08:18:09.111Z,61.83
2023-07-30T08:19:11.290Z,59.83
2023-07-30T08:20:14.529Z,57.50
2023-07-30T08:21:18.682Z,55.17
2023-07-30T08:22:21.812Z,52.17
2023-07-30T08:23:23.990Z,48.50
2023-07-30T08:24:27.258Z,46.33
2023-07-30T08:25:31.043Z,43.33
2023-07-30T08:26:34.360Z,40.50
2023-07-30T08:27:36.513Z,38.67
2023-07-30T08:28:39.713Z,37.00
2023-07-30T08:29:42.178Z,36.67
2023-07-30T08:30:45.438Z,38.00
2023-07-30T08:31:47.609Z,38.83
2023-07-30T08:32:50.875Z,39.50
2023-07-30T08:33:53.113Z,40.00
2023-07-30T08:34:56.341Z,40.00
2023-07-30T08:35:59.581Z,39.50
2023-07-30T08:37:02.743Z,38.17
2023-07-30T08:38:05.401Z,38.00
2023-07-30T08:39:09.052Z,37.67
2023-07-30T08:40:11.898Z,37.00
2023-07-30T08:41:17.381Z,37.67
2023-07-30T08:42:19.541Z,38.83
2023-07-30T08:43:22.685Z,39.00
2023-07-30T08:44:25.123Z,38.00
2023-07-30T08:45:28.356Z,35.50
2023-07-30T08:46:30.635Z,33.17
2023-07-30T08:47:33.952Z,33.00
2023-07-30T08:48:36.211Z,37.00
2023-07-30T08:49:39.419Z,45.83
2023-07-30T08:50:42.379Z,46.33
2023-07-30T08:51:46.896Z,45.50
2023-07-30T08:52:49.880Z,43.00
2023-07-30T08:53:53.820Z,40.83
2023-07-30T08:54:58.162Z,39.00
2023-07-30T08:56:02.304Z,36.50
2023-07-30T08:57:07.237Z,34.17
2023-07-30T08:58:12.536Z,32.83
2023-07-30T08:59:14.811Z,31.50
2023-07-30T09:00:19.637Z,30.67
2023-07-30T09:01:21.844Z,30.00
2023-07-30T09:02:32.622Z,30.00
2023-07-30T09:03:36.704Z,31.50
2023-07-30T09:04:40.179Z,35.00
2023-07-30T09:05:42.382Z,36.50
2023-07-30T09:06:45.828Z,36.83
2023-07-30T09:07:48.464Z,36.00
2023-07-30T09:08:51.694Z,34.33
2023-07-30T09:09:53.839Z,32.17
2023-07-30T09:10:57.006Z,31.00
2023-07-30T09:12:00.839Z,30.00
2023-07-30T09:13:05.422Z,30.00
2023-07-30T09:14:08.034Z,29.33
2023-07-30T09:15:11.748Z,29.00
2023-07-30T09:16:15.832Z,29.50
2023-07-30T09:17:19.580Z,31.00
2023-07-30T09:18:21.707Z,33.33
2023-07-30T09:19:25.043Z,34.00
2023-07-30T09:20:27.247Z,34.00
2023-07-30T09:21:35.161Z,34.00
2023-07-30T09:22:40.008Z,33.50
2023-07-30T09:23:44.066Z,32.33
2023-07-30T09:24:46.248Z,36.33
2023-07-30T09:25:51.183Z,42.83
2023-07-30T09:26:53.553Z,42.83
2023-07-30T09:27:58.018Z,41.83
2023-07-30T09:29:01.666Z,40.33
2023-07-30T09:30:07.186Z,37.50
2023-07-30T09:32:16.510Z,35.33
2023-07-30T09:33:20.280Z,37.50
2023-07-30T09:34:25.107Z,43.17
2023-07-30T09:35:27.691Z,46.83
2023-07-30T09:36:30.842Z,48.67
2023-07-30T09:37:33.161Z,49.67
2023-07-30T09:38:41.386Z,51.00
2023-07-30T09:39:43.587Z,50.00
2023-07-30T09:40:48.891Z,50.33
2023-07-30T09:41:52.209Z,51.00
2023-07-30T09:42:55.536Z,50.67
2023-07-30T09:44:00.986Z,50.00
2023-07-30T09:45:04.182Z,50.00
2023-07-30T09:46:07.432Z,53.17
2023-07-30T09:47:11.980Z,62.83
2023-07-30T09:48:15.375Z,68.33
2023-07-30T09:49:20.037Z,64.50
2023-07-30T09:50:22.172Z,62.33
2023-07-30T09:51:26.098Z,61.17
2023-07-30T09:52:29.329Z,61.00
2023-07-30T09:53:35.847Z,61.83
2023-07-30T09:54:40.638Z,62.33
2023-07-30T09:55:44.019Z,65.17
2023-07-30T09:56:46.262Z,67.17
2023-07-30T09:57:48.634Z,69.67
2023-07-30T09:58:51.798Z,70.00
2023-07-30T09:59:55.440Z,69.00
2023-07-30T10:01:01.128Z,69.00
2023-07-30T10:02:03.901Z,71.17
2023-07-30T10:03:08.683Z,72.00
2023-07-30T10:04:11.967Z,71.83
2023-07-30T10:05:17.672Z,69.33
2023-07-30T10:06:20.336Z,61.00
2023-07-30T10:07:25.034Z,51.67
2023-07-30T10:08:31.752Z,49.17
2023-07-30T10:09:39.669Z,51.17
2023-07-30T10:10:43.809Z,54.00
2023-07-30T10:11:47.729Z,56.50
2023-07-30T10:12:53.814Z,59.83
2023-07-30T10:13:57.343Z,61.00
2023-07-30T10:15:02.981Z,61.00
2023-07-30T10:16:10.806Z,60.17
2023-07-30T10:17:14.314Z,58.67
2023-07-30T10:18:16.577Z,57.67
2023-07-30T10:19:20.783Z,55.67
2023-07-30T10:20:24.929Z,53.50
2023-07-30T10:21:30.755Z,51.00
2023-07-30T10:22:33.473Z,50.00
2023-07-30T10:23:36.691Z,53.50
2023-07-30T10:24:38.933Z,58.33
2023-07-30T10:25:46.530Z,59.00
2023-07-30T10:26:48.796Z,59.67
2023-07-30T10:27:53.206Z,62.50
2023-07-30T10:29:11.947Z,63.00
2023-07-30T10:30:18.622Z,62.67
2023-07-30T10:31:20.983Z,61.83
2023-07-30T10:32:24.114Z,58.17
2023-07-30T10:33:45.710Z,54.33
2023-07-30T10:34:49.620Z,55.00
2023-07-30T10:35:56.399Z,55.00
2023-07-30T10:36:59.646Z,53.83
2023-07-30T10:38:01.872Z,51.67
2023-07-30T10:39:14.728Z,49.00
2023-07-30T10:40:18.777Z,46.00
2023-07-30T10:41:22.859Z,42.50
2023-07-30T10:42:25.985Z,39.33
2023-07-30T10:43:29.848Z,37.33
2023-07-30T10:44:34.501Z,36.00
2023-07-30T10:45:38.048Z,36.00
2023-07-30T10:46:41.395Z,36.00
2023-07-30T10:47:43.950Z,35.17
2023-07-30T10:48:48.586Z,33.67
2023-07-30T10:49:53.859Z,31.00
2023-07-30T10:50:56.992Z,30.17
2023-07-30T10:51:59.177Z,31.50
2023-07-30T10:53:02.426Z,32.67
2023-07-30T10:54:07.387Z,33.83
2023-07-30T10:55:10.927Z,33.83
2023-07-30T10:56:14.186Z,32.33
2023-07-30T10:57:17.368Z,30.33
2023-07-30T10:58:19.647Z,24.83
2023-07-30T10:59:22.836Z,20.67
2023-07-30T11:00:25.194Z,19.50
2023-07-30T11:01:29.777Z,19.00
2023-07-30T11:02:32.160Z,19.00
2023-07-30T11:03:36.701Z,19.50
2023-07-30T11:04:39.019Z,20.67
2023-07-30T11:05:42.198Z,21.50
2023-07-30T11:06:47.814Z,22.00
2023-07-30T11:07:54.225Z,21.33
2023-07-30T11:08:56.395Z,20.67
2023-07-30T11:10:03.275Z,19.67
2023-07-30T11:11:07.253Z,19.00
2023-07-30T11:12:11.656Z,19.00
2023-07-30T11:13:14.018Z,19.00
2023-07-30T11:14:17.893Z,19.00
2023-07-30T11:15:20.167Z,19.00
2023-07-30T11:16:23.464Z,19.00
2023-07-30T11:17:27.270Z,19.00
2023-07-30T11:18:33.965Z,19.00
2023-07-30T11:19:36.323Z,17.83
2023-07-30T11:20:39.629Z,16.17
2023-07-30T11:21:46.142Z,13.50
2023-07-30T11:22:49.343Z,10.00
2023-07-30T11:23:52.405Z,7.17
2023-07-30T11:24:55.566Z,5.83
2023-07-30T11:25:57.771Z,5.00
2023-07-30T11:27:02.142Z,5.00
2023-07-30T11:28:04.754Z,4.00
2023-07-30T11:29:16.640Z,4.00
2023-07-30T11:30:19.683Z,4.00
2023-07-30T11:31:23.638Z,4.67
2023-07-30T11:32:31.007Z,5.00
2023-07-30T11:33:33.833Z,5.00
2023-07-30T11:34:40.224Z,5.00
2023-07-30T11:35:42.596Z,5.00
2023-07-30T11:36:46.351Z,4.67
2023-07-30T11:37:48.779Z,4.00
2023-07-30T11:38:54.220Z,4.00
2023-07-30T11:39:56.493Z,4.00
2023-07-30T11:41:00.219Z,4.00
2023-07-30T11:42:02.710Z,4.00
2023-07-30T11:43:06.943Z,4.00
2023-07-30T11:44:09.262Z,4.00
2023-07-30T11:45:22.449Z,4.00
2023-07-30T11:46:24.878Z,4.00
2023-07-30T11:47:29.646Z,4.33
2023-07-30T11:48:31.857Z,5.00
2023-07-30T11:49:35.064Z,5.00
2023-07-30T11:50:47.281Z,5.00
2023-07-30T11:51:51.263Z,5.00
2023-07-30T11:52:54.900Z,5.00
2023-07-30T11:54:00.268Z,5.00
2023-07-30T11:55:03.423Z,5.00
2023-07-30T11:56:06.748Z,5.00
2023-07-30T11:57:09.101Z,5.00
2023-07-30T11:58:13.675Z,5.00
2023-07-30T11:59:15.930Z,5.00
2023-07-30T12:00:23.354Z,5.00
2023-07-30T12:01:27.163Z,5.00
2023-07-30T12:02:32.022Z,5.00
2023-07-30T12:03:34.339Z,5.00
2023-07-30T12:04:49.029Z,5.00
2023-07-30T12:05:55.357Z,5.00
2023-07-30T12:06:58.469Z,5.00
2023-07-30T12:08:03.990Z,5.00
2023-07-30T12:09:12.541Z,5.00
2023-07-30T12:10:15.932Z,5.00
2023-07-30T12:11:21.857Z,5.00
2023-07-30T12:12:26.866Z,5.00
2023-07-30T12:13:29.178Z,5.00
2023-07-30T12:14:45.685Z,5.00
2023-07-30T12:15:52.672Z,5.00
2023-07-30T12:16:55.886Z,5.00
2023-07-30T12:17:59.722Z,5.00
2023-07-30T12:19:02.885Z,5.00
2023-07-30T12:20:07.905Z,5.17
2023-07-30T12:21:12.404Z,6.00
2023-07-30T12:22:14.685Z,6.00
2023-07-30T12:23:17.863Z,6.00
2023-07-30T12:24:20.068Z,6.00
2023-07-30T12:25:23.191Z,6.33
2023-07-30T12:26:25.501Z,7.00
2023-07-30T12:27:28.743Z,7.00
2023-07-30T12:28:31.269Z,7.00
2023-07-30T12:29:34.549Z,7.67
2023-07-30T12:30:37.881Z,8.00
2023-07-30T12:31:41.343Z,8.33
2023-07-30T12:32:43.966Z,9.00
2023-07-30T12:33:48.584Z,9.67
2023-07-30T12:34:50.879Z,10.00
2023-07-30T12:35:54.293Z,10.83
2023-07-30T12:36:57.580Z,11.17
2023-07-30T12:38:01.324Z,12.00
2023-07-30T12:39:03.744Z,13.00
2023-07-30T12:40:08.786Z,13.67
2023-07-30T12:41:11.030Z,14.83
2023-07-30T12:42:14.185Z,16.50
2023-07-30T12:43:20.118Z,18.50
2023-07-30T12:44:22.476Z,19.67
2023-07-30T12:45:25.721Z,20.00
2023-07-30T12:46:31.180Z,20.00
2023-07-30T12:47:36.382Z,20.00
2023-07-30T12:48:39.587Z,20.50
2023-07-30T12:49:43.144Z,22.83
2023-07-30T12:50:45.312Z,26.00
2023-07-30T12:51:48.500Z,29.17
2023-07-30T12:52:50.648Z,32.33
2023-07-30T12:53:53.862Z,33.00
2023-07-30T12:54:56.228Z,32.83
2023-07-30T12:55:59.499Z,32.00
2023-07-30T12:57:01.647Z,31.00
2023-07-30T12:58:05.191Z,31.00
2023-07-30T12:59:07.374Z,33.33
2023-07-30T13:00:10.514Z,36.33
2023-07-30T13:01:13.835Z,38.00
2023-07-30T13:02:16.163Z,41.17
2023-07-30T13:03:19.582Z,47.50
2023-07-30T13:04:22.470Z,54.33
2023-07-30T13:05:27.349Z,62.33
2023-07-30T13:06:29.596Z,63.67
2023-07-30T13:07:32.864Z,66.50
2023-07-30T13:08:35.115Z,66.50
2023-07-30T13:09:38.306Z,66.33
2023-07-30T13:10:40.488Z,68.00
2023-07-30T13:11:43.848Z,73.50
2023-07-30T13:12:46.086Z,80.50
2023-07-30T13:13:48.310Z,85.50
2023-07-30T13:14:51.578Z,86.50
2023-07-30T13:15:53.832Z,94.17
2023-07-30T13:16:57.117Z,109.33
2023-07-30T13:17:59.400Z,119.17
2023-07-30T13:19:02.646Z,123.83
2023-07-30T13:20:05.975Z,124.17
2023-07-30T13:21:10.528Z,121.33
2023-07-30T13:22:12.771Z,126.83
2023-07-30T13:23:16.117Z,132.33
2023-07-30T13:24:18.315Z,143.00
2023-07-30T13:25:21.630Z,150.00
2023-07-30T13:26:23.878Z,147.50